createdAt,value
2022-08-07T00:02:36.495Z,16.56
2022-08-07T00:05:05.771Z,16.51
2022-08-07T00:07:40.070Z,16.49
2022-08-07T00:10:27.350Z,16.46
2022-08-07T00:13:09.852Z,16.44
2022-08-07T00:15:51.515Z,16.43
2022-08-07T00:18:24.446Z,16.42
2022-08-07T00:20:55.156Z,16.41
2022-08-07T00:23:28.496Z,16.40
2022-08-07T00:26:04.127Z,16.41
2022-08-07T00:28:45.863Z,16.38
2022-08-07T00:31:26.039Z,16.32
2022-08-07T00:34:08.970Z,16.30
2022-08-07T00:36:38.682Z,16.28
2022-08-07T00:39:16.940Z,16.24
2022-08-07T00:42:02.455Z,16.21
2022-08-07T00:44:38.201Z,16.20
2022-08-07T00:47:16.028Z,16.16
2022-08-07T00:50:20.351Z,16.13
2022-08-07T00:52:47.318Z,16.09
2022-08-07T00:55:17.239Z,16.04
2022-08-07T00:57:55.179Z,16.04
2022-08-07T01:00:27.688Z,16.01
2022-08-07T01:02:56.771Z,15.97
2022-08-07T01:05:28.013Z,15.95
2022-08-07T01:07:58.405Z,15.93
2022-08-07T01:10:27.143Z,15.92
2022-08-07T01:12:55.898Z,15.87
2022-08-07T01:15:35.905Z,15.81
2022-08-07T01:18:17.081Z,15.78
2022-08-07T01:20:59.293Z,15.76
2022-08-07T01:23:34.671Z,15.71
2022-08-07T01:26:11.957Z,15.68
2022-08-07T01:28:45.834Z,15.66
2022-08-07T01:31:17.775Z,15.68
2022-08-07T01:33:56.108Z,15.64
2022-08-07T01:36:33.533Z,15.63
2022-08-07T01:39:09.511Z,15.63
2022-08-07T01:41:40.839Z,15.62
2022-08-07T01:44:27.800Z,15.61
2022-08-07T01:46:56.532Z,15.58
2022-08-07T01:49:25.016Z,15.57
2022-08-07T01:52:03.473Z,15.56
2022-08-07T01:54:37.815Z,15.51
2022-08-07T01:57:08.964Z,15.51
2022-08-07T01:59:55.000Z,15.51
2022-08-07T02:03:11.251Z,15.49
2022-08-07T02:05:43.065Z,15.47
2022-08-07T02:08:17.351Z,15.46
2022-08-07T02:10:55.457Z,15.44
2022-08-07T02:13:57.664Z,15.41
2022-08-07T02:16:28.737Z,15.40
2022-08-07T02:19:05.366Z,15.37
2022-08-07T02:21:58.587Z,15.36
2022-08-07T02:24:30.267Z,15.34
2022-08-07T02:27:02.965Z,15.29
2022-08-07T02:29:32.913Z,15.27
2022-08-07T02:32:06.632Z,15.23
2022-08-07T02:34:49.019Z,15.23
2022-08-07T02:37:21.392Z,15.25
2022-08-07T02:40:02.546Z,15.23
2022-08-07T02:42:43.849Z,15.22
2022-08-07T02:45:58.417Z,15.21
2022-08-07T02:48:05.249Z,15.18
2022-08-07T02:50:43.639Z,15.14
2022-08-07T02:53:16.344Z,15.14
2022-08-07T02:56:03.413Z,15.15
2022-08-07T02:58:36.692Z,15.15
2022-08-07T03:01:10.345Z,15.12
2022-08-07T03:03:49.827Z,15.10
2022-08-07T03:06:26.240Z,15.09
2022-08-07T03:09:02.897Z,15.05
2022-08-07T03:11:38.974Z,15.00
2022-08-07T03:14:23.225Z,14.95
2022-08-07T03:16:54.061Z,14.96
2022-08-07T03:19:22.683Z,14.90
2022-08-07T03:21:52.202Z,14.88
2022-08-07T03:24:26.925Z,14.84
2022-08-07T03:27:00.430Z,14.79
2022-08-07T03:29:36.685Z,14.75
2022-08-07T03:32:13.397Z,14.66
2022-08-07T03:34:47.628Z,14.64
2022-08-07T03:37:37.340Z,14.63
2022-08-07T03:40:16.926Z,14.63
2022-08-07T03:42:46.040Z,14.61
2022-08-07T03:45:30.153Z,14.59
2022-08-07T03:48:00.273Z,14.59
2022-08-07T03:50:29.663Z,14.59
2022-08-07T03:53:00.256Z,14.59
2022-08-07T03:55:52.953Z,14.57
2022-08-07T03:59:06.730Z,14.59
2022-08-07T04:01:11.665Z,14.58
2022-08-07T04:03:53.390Z,14.57
2022-08-07T04:06:37.761Z,14.56
2022-08-07T04:09:11.762Z,14.56
2022-08-07T04:12:21.414Z,14.57
2022-08-07T04:14:38.625Z,14.58
2022-08-07T04:17:16.471Z,14.60
2022-08-07T04:19:54.072Z,14.63
2022-08-07T04:22:29.243Z,14.67
2022-08-07T04:25:01.640Z,14.70
2022-08-07T04:27:35.536Z,14.75
2022-08-07T04:30:11.631Z,14.78
2022-08-07T04:32:44.898Z,14.79
2022-08-07T04:35:16.351Z,14.81
2022-08-07T04:38:05.397Z,14.79
2022-08-07T04:40:33.361Z,14.81
2022-08-07T04:43:03.273Z,14.82
2022-08-07T04:45:58.093Z,14.87
2022-08-07T04:48:40.646Z,14.92
2022-08-07T04:51:17.428Z,14.95
2022-08-07T04:54:06.508Z,14.97
2022-08-07T04:58:12.967Z,15.00
2022-08-07T05:00:10.783Z,15.02
2022-08-07T05:02:29.184Z,15.07
2022-08-07T05:05:11.968Z,15.11
2022-08-07T05:07:57.940Z,15.16
2022-08-07T05:10:33.125Z,15.29
2022-08-07T05:14:44.311Z,15.39
2022-08-07T05:15:59.205Z,15.42
2022-08-07T05:18:36.620Z,15.43
2022-08-07T05:21:10.857Z,15.52
2022-08-07T05:23:43.333Z,15.58
2022-08-07T05:26:24.097Z,15.63
2022-08-07T05:28:57.382Z,15.61
2022-08-07T05:31:35.277Z,15.64
2022-08-07T05:34:11.184Z,15.67
2022-08-07T05:36:43.084Z,15.68
2022-08-07T05:40:17.371Z,15.68
2022-08-07T05:42:05.276Z,15.70
2022-08-07T05:44:37.835Z,15.70
2022-08-07T05:47:19.918Z,15.71
2022-08-07T05:49:50.036Z,15.74
2022-08-07T05:52:20.636Z,15.80
2022-08-07T05:55:10.329Z,15.86
2022-08-07T05:57:41.979Z,15.92
2022-08-07T06:00:16.261Z,16.02
2022-08-07T06:02:51.402Z,16.09
2022-08-07T06:05:25.871Z,16.17
2022-08-07T06:08:29.564Z,16.26
2022-08-07T06:10:49.417Z,16.31
2022-08-07T06:14:12.257Z,16.35
2022-08-07T06:16:10.327Z,16.42
2022-08-07T06:18:43.331Z,16.49
2022-08-07T06:22:15.514Z,16.55
2022-08-07T06:24:50.730Z,16.63
2022-08-07T06:26:59.681Z,16.72
2022-08-07T06:29:33.916Z,16.76
2022-08-07T06:32:02.611Z,16.84
2022-08-07T06:34:33.060Z,16.90
2022-08-07T06:37:02.456Z,17.06
2022-08-07T06:40:13.545Z,17.10
2022-08-07T06:42:32.979Z,17.16
2022-08-07T06:45:05.559Z,17.25
2022-08-07T06:47:48.027Z,17.29
2022-08-07T06:50:27.147Z,17.32
2022-08-07T06:53:04.095Z,17.35
2022-08-07T06:56:00.032Z,17.38
2022-08-07T06:58:28.727Z,17.41
2022-08-07T07:00:59.371Z,17.45
2022-08-07T07:03:48.852Z,17.51
2022-08-07T07:06:23.749Z,17.55
2022-08-07T07:08:54.645Z,17.62
2022-08-07T07:12:08.937Z,17.73
2022-08-07T07:14:14.163Z,17.82
2022-08-07T07:16:50.774Z,17.85
2022-08-07T07:19:56.309Z,17.89
2022-08-07T07:22:36.236Z,17.95
2022-08-07T07:26:30.773Z,18.01
2022-08-07T07:28:07.754Z,18.04
2022-08-07T07:31:01.138Z,18.13
2022-08-07T07:33:29.739Z,18.21
2022-08-07T07:36:05.543Z,18.24
2022-08-07T07:38:45.904Z,18.29
2022-08-07T07:41:17.580Z,18.35
2022-08-07T07:44:16.823Z,18.36
2022-08-07T07:46:55.329Z,18.50
2022-08-07T07:50:33.642Z,18.64
2022-08-07T07:52:19.016Z,18.72
2022-08-07T07:54:50.537Z,18.78
2022-08-07T07:57:44.372Z,18.81
2022-08-07T08:00:21.059Z,18.88
2022-08-07T08:03:07.869Z,18.92
2022-08-07T08:05:54.481Z,18.94
2022-08-07T08:08:36.305Z,18.99
2022-08-07T08:11:09.016Z,19.13
2022-08-07T08:13:54.029Z,19.19
2022-08-07T08:16:34.994Z,19.22
2022-08-07T08:19:17.416Z,19.24
2022-08-07T08:22:15.889Z,19.28
2022-08-07T08:25:24.865Z,19.31
2022-08-07T08:28:01.756Z,19.37
2022-08-07T08:30:35.067Z,19.41
2022-08-07T08:33:16.860Z,19.44
2022-08-07T08:35:49.894Z,19.51
2022-08-07T08:38:25.779Z,19.56
2022-08-07T08:41:05.069Z,19.62
2022-08-07T08:43:42.854Z,19.67
2022-08-07T08:46:44.973Z,19.67
2022-08-07T08:49:33.147Z,19.73
2022-08-07T08:52:13.729Z,19.86
2022-08-07T08:54:51.008Z,19.88
2022-08-07T08:57:30.390Z,19.89
2022-08-07T09:00:07.950Z,19.87
2022-08-07T09:02:49.507Z,19.96
2022-08-07T09:05:38.697Z,20.01
2022-08-07T09:08:28.794Z,20.04
2022-08-07T09:11:24.787Z,20.09
2022-08-07T09:14:12.296Z,20.16
2022-08-07T09:16:55.572Z,20.23
2022-08-07T09:19:53.503Z,20.30
2022-08-07T09:24:31.728Z,20.36
2022-08-07T09:25:40.460Z,20.37
2022-08-07T09:30:06.430Z,20.45
2022-08-07T09:31:15.596Z,20.53
2022-08-07T09:34:00.190Z,20.54
2022-08-07T09:36:37.068Z,20.54
2022-08-07T09:39:52.651Z,20.49
2022-08-07T09:42:22.915Z,20.47
2022-08-07T09:46:28.604Z,20.53
2022-08-07T09:48:11.742Z,20.56
2022-08-07T09:50:52.505Z,20.62
2022-08-07T09:53:23.622Z,20.69
2022-08-07T09:56:19.676Z,20.76
2022-08-07T09:59:35.645Z,20.89
2022-08-07T10:02:35.792Z,21.02
2022-08-07T10:05:59.101Z,21.19
2022-08-07T10:08:43.941Z,21.25
2022-08-07T10:12:02.721Z,21.25
2022-08-07T10:14:31.205Z,21.17
2022-08-07T10:17:14.116Z,21.16
2022-08-07T10:19:56.321Z,21.15
2022-08-07T10:22:50.973Z,21.06
2022-08-07T10:25:42.290Z,21.02
2022-08-07T10:28:25.963Z,20.97
2022-08-07T10:31:10.978Z,21.13
2022-08-07T10:34:05.833Z,21.72
2022-08-07T10:36:58.809Z,22.32
2022-08-07T10:40:02.705Z,22.78
2022-08-07T10:42:39.766Z,22.99
2022-08-07T10:45:25.268Z,23.58
2022-08-07T10:48:34.975Z,24.22
2022-08-07T10:51:16.975Z,24.22
2022-08-07T10:54:07.973Z,24.37
2022-08-07T10:56:46.879Z,24.97
2022-08-07T10:59:30.334Z,25.48
2022-08-07T11:02:12.479Z,25.42
2022-08-07T11:05:11.168Z,25.30
2022-08-07T11:08:00.835Z,25.44
2022-08-07T11:10:37.970Z,25.45
2022-08-07T11:13:42.415Z,25.52
2022-08-07T11:16:08.178Z,25.74
2022-08-07T11:18:50.923Z,25.88
2022-08-07T11:21:31.898Z,25.84
2022-08-07T11:24:08.518Z,25.54
2022-08-07T11:26:48.018Z,25.14
2022-08-07T11:29:41.202Z,24.90
2022-08-07T11:32:25.873Z,24.44
2022-08-07T11:34:59.747Z,24.28
2022-08-07T11:37:58.317Z,24.46
2022-08-07T11:40:40.890Z,24.28
2022-08-07T11:43:41.239Z,24.61
2022-08-07T11:46:29.504Z,24.22
2022-08-07T11:50:25.593Z,23.81
2022-08-07T11:52:51.235Z,23.54
2022-08-07T11:56:25.235Z,23.33
2022-08-07T11:58:33.429Z,23.22
2022-08-07T12:01:20.175Z,23.13
2022-08-07T12:04:26.851Z,23.09
2022-08-07T12:07:03.921Z,23.06
2022-08-07T12:09:47.361Z,23.09
2022-08-07T12:12:26.480Z,22.96
2022-08-07T12:15:05.093Z,22.81
2022-08-07T12:17:58.875Z,22.80
2022-08-07T12:20:32.268Z,22.87
2022-08-07T12:23:17.859Z,22.94
2022-08-07T12:26:05.495Z,23.05
2022-08-07T12:28:53.960Z,23.27
2022-08-07T12:32:02.186Z,23.37
2022-08-07T12:34:27.472Z,23.50
2022-08-07T12:36:58.907Z,23.31
2022-08-07T12:39:43.869Z,23.52
2022-08-07T12:42:27.589Z,23.76
2022-08-07T12:45:00.256Z,23.74
2022-08-07T12:47:42.787Z,24.47
2022-08-07T12:50:33.994Z,24.85
2022-08-07T12:53:18.141Z,25.49
2022-08-07T12:56:02.452Z,25.73
2022-08-07T12:58:39.913Z,25.88
2022-08-07T13:01:19.554Z,25.89
2022-08-07T13:04:05.054Z,25.87
2022-08-07T13:07:03.971Z,25.86
2022-08-07T13:10:37.101Z,26.56
2022-08-07T13:13:00.608Z,27.00
2022-08-07T13:15:57.317Z,26.97
2022-08-07T13:18:38.453Z,27.33
2022-08-07T13:21:14.327Z,27.90
2022-08-07T13:24:11.531Z,28.09
2022-08-07T13:26:46.366Z,28.44
2022-08-07T13:29:21.733Z,28.11
2022-08-07T13:32:00.065Z,28.26
2022-08-07T13:34:44.814Z,28.28
2022-08-07T13:37:26.724Z,28.19
2022-08-07T13:40:41.736Z,27.86
2022-08-07T13:42:59.365Z,27.98
2022-08-07T13:46:16.405Z,27.93
2022-08-07T13:48:33.763Z,27.73
2022-08-07T13:51:27.510Z,27.31
2022-08-07T13:54:00.264Z,26.99
2022-08-07T13:56:36.119Z,27.16
2022-08-07T13:59:13.566Z,27.21
2022-08-07T14:01:51.541Z,27.36
2022-08-07T14:04:36.395Z,27.64
2022-08-07T14:07:10.455Z,27.27
2022-08-07T14:10:01.325Z,27.50
2022-08-07T14:12:41.655Z,26.82
2022-08-07T14:15:19.280Z,26.52
2022-08-07T14:18:15.963Z,26.63
2022-08-07T14:22:41.032Z,27.11
2022-08-07T14:24:00.261Z,27.44
2022-08-07T14:26:35.862Z,27.62
2022-08-07T14:30:05.596Z,27.48
2022-08-07T14:32:01.150Z,26.94
2022-08-07T14:34:31.952Z,26.39
2022-08-07T14:37:04.407Z,25.91
2022-08-07T14:40:16.565Z,25.54
2022-08-07T14:42:32.256Z,25.32
2022-08-07T14:47:58.712Z,25.12
2022-08-07T14:50:37.441Z,25.08
2022-08-07T14:53:09.777Z,25.10
2022-08-07T14:55:55.553Z,25.31
2022-08-07T14:58:32.520Z,25.10
2022-08-07T15:01:21.501Z,25.03
2022-08-07T15:03:53.357Z,25.23
2022-08-07T15:06:26.822Z,25.21
2022-08-07T15:09:47.125Z,24.94
2022-08-07T15:13:05.887Z,24.78
2022-08-07T15:14:57.776Z,24.68
2022-08-07T15:17:32.656Z,24.52
2022-08-07T15:20:33.205Z,24.30
2022-08-07T15:25:58.460Z,24.18
2022-08-07T15:32:00.765Z,24.02
2022-08-07T15:39:59.035Z,23.85
2022-08-07T15:42:51.825Z,23.98
2022-08-07T15:45:55.759Z,23.86
2022-08-07T15:48:31.611Z,23.78
2022-08-07T15:51:09.232Z,23.69
2022-08-07T15:53:52.363Z,23.62
2022-08-07T15:56:33.293Z,23.69
2022-08-07T15:59:06.121Z,23.91
2022-08-07T16:02:01.912Z,24.09
2022-08-07T16:04:34.161Z,24.28
2022-08-07T16:08:32.850Z,24.31
2022-08-07T16:10:03.785Z,24.34
2022-08-07T16:12:42.157Z,24.33
2022-08-07T16:15:57.705Z,24.29
2022-08-07T16:18:49.314Z,24.22
2022-08-07T16:22:01.183Z,24.27
2022-08-07T16:24:34.733Z,24.34
2022-08-07T16:27:17.873Z,24.31
2022-08-07T16:30:30.478Z,24.17
2022-08-07T16:34:06.022Z,24.17
2022-08-07T16:36:20.177Z,24.10
2022-08-07T16:39:33.622Z,24.07
2022-08-07T16:42:30.154Z,24.06
2022-08-07T16:46:21.191Z,24.06
2022-08-07T16:49:04.325Z,23.98
2022-08-07T16:52:01.877Z,23.94
2022-08-07T16:54:54.158Z,23.87
2022-08-07T16:58:01.813Z,23.84
2022-08-07T17:00:30.155Z,23.80
2022-08-07T17:03:58.275Z,23.78
2022-08-07T17:06:30.380Z,23.71
2022-08-07T17:09:13.981Z,23.65
2022-08-07T17:12:04.090Z,23.64
2022-08-07T17:14:44.996Z,23.60
2022-08-07T17:17:46.059Z,23.61
2022-08-07T17:20:30.061Z,23.62
2022-08-07T17:23:08.592Z,23.65
2022-08-07T17:25:54.571Z,23.64
2022-08-07T17:28:32.408Z,23.60
2022-08-07T17:31:15.669Z,23.56
2022-08-07T17:34:17.938Z,23.55
2022-08-07T17:36:57.463Z,23.49
2022-08-07T17:39:53.090Z,23.47
2022-08-07T17:42:59.620Z,23.40
2022-08-07T17:45:35.065Z,23.39
2022-08-07T17:48:12.658Z,23.36
2022-08-07T17:50:54.400Z,23.31
2022-08-07T17:54:00.711Z,23.31
2022-08-07T17:56:29.198Z,23.30
2022-08-07T17:59:08.961Z,23.32
2022-08-07T18:01:48.563Z,23.29
2022-08-07T18:04:31.221Z,23.30
2022-08-07T18:07:20.200Z,23.25
2022-08-07T18:10:06.273Z,23.23
2022-08-07T18:13:09.956Z,23.24
2022-08-07T18:15:53.576Z,23.19
2022-08-07T18:18:46.130Z,23.16
2022-08-07T18:21:37.338Z,23.08
2022-08-07T18:24:33.409Z,23.05
2022-08-07T18:27:38.408Z,22.95
2022-08-07T18:30:32.321Z,22.84
2022-08-07T18:33:34.716Z,22.75
2022-08-07T18:36:14.110Z,22.67
2022-08-07T18:40:07.164Z,22.55
2022-08-07T18:42:03.993Z,22.49
2022-08-07T18:47:49.075Z,22.34
2022-08-07T18:50:58.481Z,22.32
2022-08-07T18:53:45.153Z,22.28
2022-08-07T18:56:32.094Z,22.25
2022-08-07T18:59:47.208Z,22.27
2022-08-07T19:02:42.414Z,22.21
2022-08-07T19:05:21.293Z,22.11
2022-08-07T19:07:58.665Z,22.02
2022-08-07T19:10:49.614Z,21.97
2022-08-07T19:13:26.591Z,21.90
2022-08-07T19:16:04.759Z,21.82
2022-08-07T19:18:58.056Z,21.69
2022-08-07T19:21:44.136Z,21.62
2022-08-07T19:24:30.388Z,21.50
2022-08-07T19:28:58.035Z,21.39
2022-08-07T19:31:05.606Z,21.34
2022-08-07T19:32:50.887Z,21.28
2022-08-07T19:35:24.520Z,21.15
2022-08-07T19:37:58.312Z,21.14
2022-08-07T19:40:31.451Z,21.09
2022-08-07T19:43:09.393Z,21.07
2022-08-07T19:46:07.180Z,20.97
2022-08-07T19:48:42.999Z,20.92
2022-08-07T19:51:20.033Z,20.86
2022-08-07T19:54:32.173Z,20.81
2022-08-07T19:57:50.932Z,20.75
2022-08-07T19:59:40.509Z,20.71
2022-08-07T20:02:19.698Z,20.70
2022-08-07T20:05:00.412Z,20.67
2022-08-07T20:07:47.855Z,20.63
2022-08-07T20:10:37.041Z,20.53
2022-08-07T20:13:23.428Z,20.46
2022-08-07T20:15:57.811Z,20.43
2022-08-07T20:18:32.721Z,20.39
2022-08-07T20:21:21.571Z,20.34
2022-08-07T20:24:00.154Z,20.30
2022-08-07T20:26:32.385Z,20.27
2022-08-07T20:29:10.414Z,20.25
2022-08-07T20:31:46.530Z,20.19
2022-08-07T20:34:40.073Z,20.13
2022-08-07T20:37:10.092Z,20.11
2022-08-07T20:40:02.958Z,20.03
2022-08-07T20:42:32.293Z,19.96
2022-08-07T20:45:02.131Z,19.92
2022-08-07T20:47:55.524Z,19.89
2022-08-07T20:50:28.992Z,19.79
2022-08-07T20:53:00.270Z,19.82
2022-08-07T20:55:35.974Z,19.76
2022-08-07T20:58:08.874Z,19.72
2022-08-07T21:00:46.044Z,19.70
2022-08-07T21:03:18.919Z,19.68
2022-08-07T21:05:56.975Z,19.63
2022-08-07T21:08:36.536Z,19.60
2022-08-07T21:11:12.220Z,19.55
2022-08-07T21:14:16.180Z,19.54
2022-08-07T21:16:56.087Z,19.48
2022-08-07T21:19:32.340Z,19.48
2022-08-07T21:22:19.064Z,19.49
2022-08-07T21:25:04.723Z,19.45
2022-08-07T21:27:53.696Z,19.40
2022-08-07T21:30:30.089Z,19.35
2022-08-07T21:33:08.657Z,19.32
2022-08-07T21:36:05.277Z,19.29
2022-08-07T21:38:46.201Z,19.25
2022-08-07T21:41:25.758Z,19.22
2022-08-07T21:44:05.404Z,19.18
2022-08-07T21:46:42.008Z,19.14
2022-08-07T21:49:16.404Z,19.13
2022-08-07T21:52:06.251Z,19.09
2022-08-07T21:54:51.133Z,19.02
2022-08-07T21:57:44.638Z,18.98
2022-08-07T22:00:23.246Z,18.95
2022-08-07T22:03:03.608Z,18.93
2022-08-07T22:05:45.914Z,18.90
2022-08-07T22:08:21.728Z,18.86
2022-08-07T22:10:58.965Z,18.85
2022-08-07T22:13:50.980Z,18.80
2022-08-07T22:16:40.948Z,18.78
2022-08-07T22:19:29.380Z,18.74
2022-08-07T22:22:18.190Z,18.73
2022-08-07T22:25:02.969Z,18.69
2022-08-07T22:28:03.163Z,18.68
2022-08-07T22:30:30.918Z,18.68
2022-08-07T22:33:09.180Z,18.65
2022-08-07T22:35:42.894Z,18.59
2022-08-07T22:38:30.868Z,18.57
2022-08-07T22:41:07.433Z,18.54
2022-08-07T22:43:41.912Z,18.56
2022-08-07T22:47:02.483Z,18.53
2022-08-07T22:49:54.229Z,18.50
2022-08-07T22:52:46.385Z,18.47
2022-08-07T22:55:31.987Z,18.45
2022-08-07T22:58:45.041Z,18.43
2022-08-07T23:01:30.558Z,18.40
2022-08-07T23:04:35.182Z,18.41
2022-08-07T23:07:41.805Z,18.37
2022-08-07T23:10:38.014Z,18.36
2022-08-07T23:13:29.510Z,18.31
2022-08-07T23:16:46.344Z,18.28
2022-08-07T23:19:51.392Z,18.24
2022-08-07T23:22:36.012Z,18.20
2022-08-07T23:25:21.539Z,18.18
2022-08-07T23:28:29.025Z,18.15
2022-08-07T23:31:18.820Z,18.18
2022-08-07T23:34:43.175Z,18.18
2022-08-07T23:37:29.413Z,18.22
2022-08-07T23:40:13.748Z,18.19
2022-08-07T23:42:54.592Z,18.17
2022-08-07T23:46:01.448Z,18.13
2022-08-07T23:48:34.075Z,18.13
2022-08-07T23:52:55.916Z,18.10
2022-08-07T23:54:05.392Z,18.08
2022-08-07T23:56:53.981Z,18.10
